Time;durP1;ratioP1;P1;durP2;ratioP2;P2;SDS_P1;SDS_P2;PMS_P1;PMS_P2;Temp;Humidity;BMP_temperature;BMP_pressure;BME280_temperature;BME280_humidity;BME280_pressure;Samples;Min_cycle;Max_cycle;Signal;HPM_P1;HPM_P2
2023/06/24 00:02:17;;;;;;;5.00;3.10;;;;;;;;;;791829;177;921225;-67
2023/06/24 00:04:43;;;;;;;4.50;3.17;;;;;;;;;;782606;177;911245;-61
2023/06/24 00:07:09;;;;;;;3.87;2.60;;;;;;;;;;783977;177;926124;-66
2023/06/24 00:09:34;;;;;;;3.30;2.47;;;;;;;;;;790635;177;921204;-61
2023/06/24 00:12:00;;;;;;;6.30;3.10;;;;;;;;;;781634;176;946376;-68
2023/06/24 00:14:26;;;;;;;4.20;3.05;;;;;;;;;;785373;177;922043;-60
2023/06/24 00:16:52;;;;;;;6.43;3.40;;;;;;;;;;790693;177;919287;-60
2023/06/24 00:19:19;;;;;;;6.60;2.80;;;;;;;;;;770542;178;919666;-67
2023/06/24 00:21:44;;;;;;;4.05;2.80;;;;;;;;;;781030;177;919214;-66
2023/06/24 00:24:10;;;;;;;5.20;2.80;;;;;;;;;;785276;177;918916;-66
2023/06/24 00:26:36;;;;;;;5.23;3.57;;;;;;;;;;787141;177;913133;-60
2023/06/24 00:29:02;;;;;;;4.30;2.90;;;;;;;;;;784503;177;917146;-61
2023/06/24 00:31:28;;;;;;;4.87;2.73;;;;;;;;;;787608;177;916542;-66
2023/06/24 00:33:54;;;;;;;4.83;2.50;;;;;;;;;;790042;177;820811;-66
2023/06/24 00:36:19;;;;;;;4.23;3.23;;;;;;;;;;787259;177;913090;-66
2023/06/24 00:38:45;;;;;;;6.07;2.83;;;;;;;;;;782849;176;917579;-60
2023/06/24 00:41:11;;;;;;;3.80;3.10;;;;;;;;;;794691;176;919830;-66
2023/06/24 00:43:38;;;;;;;6.00;3.20;;;;;;;;;;784653;176;920785;-67
2023/06/24 00:46:03;;;;;;;3.60;2.57;;;;;;;;;;782843;176;921750;-60
2023/06/24 00:48:29;;;;;;;7.40;2.80;;;;;;;;;;781899;178;838819;-59
2023/06/24 00:50:58;;;;;;;7.63;2.70;;;;;;;;;;791515;175;919422;-66
2023/06/24 00:53:24;;;;;;;5.23;3.07;;;;;;;;;;783922;177;919338;-60
2023/06/24 00:55:46;;;;;;;3.43;2.40;;;;;;;;;;779733;176;1021131;-66
2023/06/24 00:58:15;;;;;;;3.90;2.60;;;;;;;;;;791505;176;919509;-60
2023/06/24 01:00:38;;;;;;;3.67;2.50;;;;;;;;;;787086;177;919197;-60
2023/06/24 01:03:04;;;;;;;4.67;2.87;;;;;;;;;;783169;177;918914;-66
2023/06/24 01:05:30;;;;;;;5.33;2.50;;;;;;;;;;792346;177;899028;-68
2023/06/24 01:07:55;;;;;;;3.45;2.30;;;;;;;;;;786698;177;919665;-68
2023/06/24 01:10:22;;;;;;;4.93;3.00;;;;;;;;;;783140;177;918184;-69
2023/06/24 01:12:47;;;;;;;6.10;2.80;;;;;;;;;;787094;177;919172;-67
2023/06/24 01:15:13;;;;;;;6.07;2.50;;;;;;;;;;797463;176;918947;-68
2023/06/24 01:17:39;;;;;;;4.23;2.93;;;;;;;;;;785634;177;938111;-61
2023/06/24 01:20:10;;;;;;;4.03;2.70;;;;;;;;;;784676;177;918762;-67
2023/06/24 01:22:40;;;;;;;3.73;2.83;;;;;;;;;;791794;177;952420;-62
2023/06/24 01:25:19;;;;;;;5.93;2.70;;;;;;;;;;776923;179;820255;-68
2023/06/24 01:27:44;;;;;;;6.67;2.57;;;;;;;;;;784541;176;919219;-68
2023/06/24 01:30:16;;;;;;;3.73;2.50;;;;;;;;;;783743;177;926087;-61
2023/06/24 01:32:44;;;;;;;3.63;2.37;;;;;;;;;;780424;178;918732;-61
2023/06/24 01:35:09;;;;;;;5.53;1.90;;;;;;;;;;782859;177;815858;-61
2023/06/24 01:37:36;;;;;;;5.13;2.50;;;;;;;;;;783144;176;817201;-69
2023/06/24 01:40:09;;;;;;;4.40;2.80;;;;;;;;;;786424;177;918476;-62
2023/06/24 01:42:32;;;;;;;3.30;2.20;;;;;;;;;;782032;176;918570;-66
2023/06/24 01:44:58;;;;;;;4.47;2.10;;;;;;;;;;782668;178;919351;-69
2023/06/24 01:47:24;;;;;;;3.60;2.20;;;;;;;;;;780344;177;920439;-69
2023/06/24 01:49:49;;;;;;;3.20;2.40;;;;;;;;;;784108;176;919593;-67
2023/06/24 01:52:15;;;;;;;9.33;2.50;;;;;;;;;;792927;176;918045;-62
2023/06/24 01:54:41;;;;;;;2.97;1.73;;;;;;;;;;788114;176;917062;-61
2023/06/24 01:57:07;;;;;;;3.77;2.40;;;;;;;;;;788288;177;849083;-68
2023/06/24 01:59:33;;;;;;;2.93;2.13;;;;;;;;;;794177;177;916689;-68
2023/06/24 02:01:59;;;;;;;4.13;2.53;;;;;;;;;;786207;177;918759;-62
2023/06/24 02:04:24;;;;;;;4.67;2.70;;;;;;;;;;788376;176;919916;-69
2023/06/24 02:06:50;;;;;;;3.20;2.27;;;;;;;;;;791868;177;915162;-61
2023/06/24 02:09:16;;;;;;;4.33;2.20;;;;;;;;;;783227;177;918984;-68
2023/06/24 02:11:42;;;;;;;3.57;2.27;;;;;;;;;;783931;177;919696;-68
2023/06/24 02:14:08;;;;;;;3.43;2.27;;;;;;;;;;786573;177;919180;-67
2023/06/24 02:16:34;;;;;;;2.60;1.90;;;;;;;;;;788839;176;919125;-68
2023/06/24 02:18:59;;;;;;;3.07;2.00;;;;;;;;;;785198;177;919239;-62
2023/06/24 02:21:25;;;;;;;3.60;2.47;;;;;;;;;;785390;176;886163;-69
2023/06/24 02:23:51;;;;;;;3.15;2.37;;;;;;;;;;789878;177;918856;-68
2023/06/24 02:26:17;;;;;;;3.10;1.90;;;;;;;;;;780751;177;918910;-62
2023/06/24 02:28:43;;;;;;;3.17;2.00;;;;;;;;;;788650;177;816143;-61
2023/06/24 02:31:09;;;;;;;2.77;1.83;;;;;;;;;;790141;177;918731;-61
2023/06/24 02:33:34;;;;;;;2.83;1.67;;;;;;;;;;786145;177;817103;-62
2023/06/24 02:36:00;;;;;;;5.27;2.10;;;;;;;;;;782892;176;919469;-68
2023/06/24 02:38:26;;;;;;;6.27;2.60;;;;;;;;;;783882;177;918651;-68
2023/06/24 02:40:52;;;;;;;6.33;2.30;;;;;;;;;;786148;178;919094;-68
2023/06/24 02:43:18;;;;;;;2.97;2.20;;;;;;;;;;785276;176;919145;-68
2023/06/24 02:45:44;;;;;;;3.63;2.20;;;;;;;;;;784971;176;918754;-61
2023/06/24 02:48:10;;;;;;;2.70;2.27;;;;;;;;;;792734;177;914805;-68
2023/06/24 02:50:35;;;;;;;5.03;2.35;;;;;;;;;;781870;177;913405;-62
2023/06/24 02:53:01;;;;;;;3.73;2.43;;;;;;;;;;785702;177;915249;-69
2023/06/24 02:55:27;;;;;;;2.60;2.10;;;;;;;;;;791262;177;916539;-61
2023/06/24 02:57:53;;;;;;;3.97;2.47;;;;;;;;;;784214;177;921007;-69
2023/06/24 03:00:20;;;;;;;2.70;2.00;;;;;;;;;;786243;177;1018869;-61
2023/06/24 03:02:45;;;;;;;3.10;2.30;;;;;;;;;;789058;176;918313;-68
2023/06/24 03:05:11;;;;;;;7.80;2.60;;;;;;;;;;792739;175;840473;-69
2023/06/24 03:07:36;;;;;;;3.90;2.60;;;;;;;;;;784471;176;920595;-68
2023/06/24 03:10:02;;;;;;;3.70;2.28;;;;;;;;;;784681;177;920778;-61
2023/06/24 03:12:28;;;;;;;3.00;1.90;;;;;;;;;;795041;176;818218;-61
2023/06/24 03:14:54;;;;;;;3.27;2.20;;;;;;;;;;789261;177;918631;-61
2023/06/24 03:17:20;;;;;;;3.70;2.20;;;;;;;;;;787808;176;917151;-67
2023/06/24 03:19:46;;;;;;;3.50;2.10;;;;;;;;;;792933;176;918699;-67
2023/06/24 03:22:11;;;;;;;2.80;1.87;;;;;;;;;;783664;177;920817;-61
2023/06/24 03:24:37;;;;;;;9.60;2.17;;;;;;;;;;784256;176;919040;-62
2023/06/24 03:27:03;;;;;;;3.17;1.90;;;;;;;;;;785645;177;918084;-61
2023/06/24 03:29:29;;;;;;;3.30;2.37;;;;;;;;;;783464;177;919936;-68
2023/06/24 03:31:55;;;;;;;2.80;2.10;;;;;;;;;;789559;177;816582;-68
2023/06/24 03:34:21;;;;;;;3.03;2.27;;;;;;;;;;787461;177;846493;-67
2023/06/24 03:36:47;;;;;;;3.30;1.90;;;;;;;;;;792202;177;917607;-61
2023/06/24 03:39:13;;;;;;;3.03;2.20;;;;;;;;;;788168;177;904429;-68
2023/06/24 03:41:39;;;;;;;4.43;2.00;;;;;;;;;;785695;177;916104;-68
2023/06/24 03:44:04;;;;;;;2.70;1.83;;;;;;;;;;791209;177;841017;-67
2023/06/24 03:46:32;;;;;;;2.80;2.07;;;;;;;;;;785877;176;919250;-61
2023/06/24 03:48:56;;;;;;;2.80;1.90;;;;;;;;;;784202;176;942924;-68
2023/06/24 03:51:22;;;;;;;3.73;2.13;;;;;;;;;;790323;177;916477;-61
2023/06/24 03:53:48;;;;;;;3.70;1.80;;;;;;;;;;782020;178;919103;-66
2023/06/24 03:56:14;;;;;;;2.60;1.80;;;;;;;;;;783041;177;919136;-62
2023/06/24 03:58:40;;;;;;;2.83;1.90;;;;;;;;;;788103;177;919061;-67
2023/06/24 04:01:05;;;;;;;2.60;1.80;;;;;;;;;;790593;177;919336;-68
2023/06/24 04:03:31;;;;;;;7.60;2.07;;;;;;;;;;786390;177;917529;-61
2023/06/24 04:05:57;;;;;;;3.47;2.20;;;;;;;;;;785027;177;919699;-68
2023/06/24 04:08:25;;;;;;;2.87;1.83;;;;;;;;;;790559;177;919749;-68
2023/06/24 04:10:49;;;;;;;4.33;1.93;;;;;;;;;;785442;177;919487;-61
2023/06/24 04:13:15;;;;;;;3.83;1.83;;;;;;;;;;784821;176;921067;-61
2023/06/24 04:15:40;;;;;;;6.50;1.70;;;;;;;;;;791546;176;871082;-68
2023/06/24 04:18:07;;;;;;;2.43;1.50;;;;;;;;;;786130;176;921728;-62
2023/06/24 04:20:32;;;;;;;3.50;1.70;;;;;;;;;;787108;176;919604;-61
2023/06/24 04:22:58;;;;;;;2.67;1.83;;;;;;;;;;786426;176;920244;-67
2023/06/24 04:25:24;;;;;;;3.30;1.70;;;;;;;;;;791308;176;920184;-61
2023/06/24 04:27:50;;;;;;;2.40;1.47;;;;;;;;;;788389;177;917391;-61
2023/06/24 04:30:15;;;;;;;2.70;1.60;;;;;;;;;;787381;176;919334;-67
2023/06/24 04:32:41;;;;;;;2.50;1.60;;;;;;;;;;789441;176;919230;-68
2023/06/24 04:35:07;;;;;;;2.50;1.53;;;;;;;;;;788112;177;919656;-69
2023/06/24 04:37:33;;;;;;;4.73;1.93;;;;;;;;;;786104;177;870784;-67
2023/06/24 04:39:59;;;;;;;3.40;2.23;;;;;;;;;;793715;177;918935;-61
2023/06/24 04:42:25;;;;;;;2.50;1.80;;;;;;;;;;786921;177;920413;-61
2023/06/24 04:44:51;;;;;;;2.43;1.57;;;;;;;;;;785768;176;923039;-61
2023/06/24 04:47:17;;;;;;;2.40;1.50;;;;;;;;;;789043;176;918831;-61
2023/06/24 04:49:42;;;;;;;4.10;1.70;;;;;;;;;;780987;177;920111;-61
2023/06/24 04:52:08;;;;;;;2.90;1.80;;;;;;;;;;783727;177;1000604;-62
2023/06/24 04:54:34;;;;;;;2.97;2.13;;;;;;;;;;786154;177;1039749;-68
2023/06/24 04:57:00;;;;;;;2.40;1.40;;;;;;;;;;790997;176;920681;-62
2023/06/24 04:59:26;;;;;;;2.50;1.63;;;;;;;;;;785138;177;919687;-61
2023/06/24 05:01:52;;;;;;;6.57;1.30;;;;;;;;;;787095;176;914730;-61
2023/06/24 05:04:18;;;;;;;3.90;2.07;;;;;;;;;;790886;177;918977;-68
2023/06/24 05:06:43;;;;;;;2.80;1.70;;;;;;;;;;786829;177;912113;-69
2023/06/24 05:09:13;;;;;;;2.93;2.00;;;;;;;;;;785560;177;888696;-68
2023/06/24 05:11:35;;;;;;;2.60;1.53;;;;;;;;;;790827;177;821249;-69
2023/06/24 05:14:01;;;;;;;2.50;1.63;;;;;;;;;;786438;177;810384;-70
2023/06/24 05:16:27;;;;;;;2.80;1.73;;;;;;;;;;784101;177;844877;-61
2023/06/24 05:18:53;;;;;;;2.90;1.63;;;;;;;;;;787221;176;857208;-62
2023/06/24 05:21:19;;;;;;;2.77;1.57;;;;;;;;;;789704;177;895297;-61
2023/06/24 05:23:44;;;;;;;2.80;1.40;;;;;;;;;;784234;177;912801;-61
2023/06/24 05:26:11;;;;;;;2.70;1.70;;;;;;;;;;786451;176;914959;-68
2023/06/24 05:28:36;;;;;;;2.70;1.73;;;;;;;;;;792879;176;919986;-69
2023/06/24 05:31:02;;;;;;;2.87;1.80;;;;;;;;;;788194;176;932840;-70
2023/06/24 05:33:28;;;;;;;2.40;1.60;;;;;;;;;;787753;176;907794;-62
2023/06/24 05:35:54;;;;;;;2.57;1.80;;;;;;;;;;791191;176;915846;-58
2023/06/24 05:38:20;;;;;;;3.47;2.00;;;;;;;;;;785789;175;852644;-69
2023/06/24 05:40:45;;;;;;;3.03;1.70;;;;;;;;;;782587;176;922098;-69
2023/06/24 05:43:11;;;;;;;5.47;2.07;;;;;;;;;;786634;175;918804;-61
2023/06/24 05:45:37;;;;;;;2.60;1.60;;;;;;;;;;788073;177;922561;-69
2023/06/24 05:48:03;;;;;;;2.20;1.30;;;;;;;;;;783295;178;920543;-70
2023/06/24 05:50:29;;;;;;;3.40;1.40;;;;;;;;;;784465;177;922380;-61
2023/06/24 05:52:55;;;;;;;2.87;1.90;;;;;;;;;;792036;177;920392;-70
2023/06/24 05:55:21;;;;;;;2.47;1.73;;;;;;;;;;787808;177;852029;-68
2023/06/24 05:57:47;;;;;;;3.60;1.73;;;;;;;;;;787356;177;816219;-61
2023/06/24 06:00:13;;;;;;;2.50;1.67;;;;;;;;;;789498;177;917278;-69
2023/06/24 06:02:39;;;;;;;3.23;1.90;;;;;;;;;;787766;177;919735;-69
2023/06/24 06:05:05;;;;;;;2.90;1.60;;;;;;;;;;788791;177;919599;-62
2023/06/24 06:07:31;;;;;;;3.40;2.07;;;;;;;;;;790263;175;798771;-69
2023/06/24 06:09:57;;;;;;;2.70;1.73;;;;;;;;;;784525;177;919620;-63
2023/06/24 06:12:22;;;;;;;2.80;1.87;;;;;;;;;;786205;177;831743;-61
2023/06/24 06:14:48;;;;;;;2.77;1.70;;;;;;;;;;785570;177;916949;-69
2023/06/24 06:17:14;;;;;;;3.07;1.80;;;;;;;;;;793490;177;821275;-61
2023/06/24 06:19:41;;;;;;;3.55;1.90;;;;;;;;;;785565;176;921238;-61
2023/06/24 06:22:06;;;;;;;2.60;1.80;;;;;;;;;;780990;177;918075;-59
2023/06/24 06:24:32;;;;;;;6.10;1.73;;;;;;;;;;790821;177;920361;-60
2023/06/24 06:26:58;;;;;;;3.07;1.70;;;;;;;;;;782847;176;918562;-60
2023/06/24 06:29:23;;;;;;;3.40;1.83;;;;;;;;;;791608;177;631506;-71
2023/06/24 06:31:49;;;;;;;2.47;1.70;;;;;;;;;;790267;176;918683;-60
2023/06/24 06:34:15;;;;;;;6.30;1.53;;;;;;;;;;788568;176;920329;-69
2023/06/24 06:36:41;;;;;;;2.77;1.50;;;;;;;;;;785959;177;641276;-70
2023/06/24 06:39:07;;;;;;;2.50;1.37;;;;;;;;;;794501;176;637187;-68
2023/06/24 06:41:33;;;;;;;3.50;1.67;;;;;;;;;;795346;176;635004;-70
2023/06/24 06:43:59;;;;;;;2.30;1.30;;;;;;;;;;790005;176;916873;-70
2023/06/24 06:46:25;;;;;;;4.03;1.70;;;;;;;;;;789872;177;919016;-70
2023/06/24 06:48:51;;;;;;;2.60;1.70;;;;;;;;;;790225;176;917210;-59
2023/06/24 06:51:18;;;;;;;3.13;1.77;;;;;;;;;;783190;176;1122116;-69
2023/06/24 06:53:43;;;;;;;3.77;2.00;;;;;;;;;;784929;176;816754;-60
2023/06/24 06:56:09;;;;;;;6.70;1.47;;;;;;;;;;790229;177;635923;-71
2023/06/24 06:58:34;;;;;;;4.10;1.80;;;;;;;;;;783316;177;916745;-68
2023/06/24 07:01:04;;;;;;;2.73;1.40;;;;;;;;;;785555;176;828603;-70
2023/06/24 07:03:27;;;;;;;5.10;1.63;;;;;;;;;;786122;176;819431;-59
2023/06/24 07:05:52;;;;;;;2.87;1.73;;;;;;;;;;788689;177;918770;-59
2023/06/24 07:08:18;;;;;;;2.73;1.47;;;;;;;;;;785858;176;916344;-70
2023/06/24 07:10:44;;;;;;;3.40;1.70;;;;;;;;;;785771;176;918629;-70
2023/06/24 07:13:10;;;;;;;3.50;1.37;;;;;;;;;;789183;177;911179;-70
2023/06/24 07:15:35;;;;;;;3.47;1.23;;;;;;;;;;785439;176;911503;-59
2023/06/24 07:18:01;;;;;;;2.92;1.25;;;;;;;;;;784770;177;917069;-59
2023/06/24 07:20:27;;;;;;;2.87;1.50;;;;;;;;;;789931;177;915949;-73
2023/06/24 07:22:53;;;;;;;2.70;1.57;;;;;;;;;;787024;176;814262;-70
2023/06/24 07:25:19;;;;;;;4.30;1.60;;;;;;;;;;788089;177;919418;-62
2023/06/24 07:27:45;;;;;;;2.10;1.20;;;;;;;;;;788474;177;918146;-63
2023/06/24 07:30:11;;;;;;;2.10;0.90;;;;;;;;;;784420;179;917908;-60
2023/06/24 07:32:37;;;;;;;2.57;1.37;;;;;;;;;;779487;179;919663;-71
2023/06/24 07:35:03;;;;;;;2.00;1.00;;;;;;;;;;778073;178;919484;-69
2023/06/24 07:37:29;;;;;;;1.93;0.80;;;;;;;;;;787058;177;919056;-71
2023/06/24 07:39:55;;;;;;;2.77;1.00;;;;;;;;;;785192;175;919163;-60
2023/06/24 07:42:21;;;;;;;2.37;1.00;;;;;;;;;;780380;175;915635;-73
2023/06/24 07:44:46;;;;;;;2.20;0.90;;;;;;;;;;789353;175;916622;-70
2023/06/24 07:47:12;;;;;;;2.40;1.20;;;;;;;;;;787252;175;818162;-68
2023/06/24 07:49:38;;;;;;;3.10;1.10;;;;;;;;;;789376;176;1010118;-70
2023/06/24 07:52:04;;;;;;;2.07;1.07;;;;;;;;;;794016;177;917935;-70
2023/06/24 07:54:30;;;;;;;3.37;1.30;;;;;;;;;;784426;176;918403;-67
2023/06/24 07:56:56;;;;;;;3.47;1.20;;;;;;;;;;787661;176;919430;-59
2023/06/24 07:59:22;;;;;;;4.93;1.20;;;;;;;;;;786078;176;884298;-68
2023/06/24 08:01:47;;;;;;;2.20;1.10;;;;;;;;;;790344;176;917842;-59
2023/06/24 08:04:13;;;;;;;3.23;1.30;;;;;;;;;;785856;177;911037;-70
2023/06/24 08:06:39;;;;;;;2.97;1.20;;;;;;;;;;779116;176;908369;-70
2023/06/24 08:09:05;;;;;;;2.00;1.07;;;;;;;;;;792402;177;918872;-63
2023/06/24 08:11:31;;;;;;;3.20;1.50;;;;;;;;;;786342;176;918815;-69
2023/06/24 08:13:57;;;;;;;2.60;1.40;;;;;;;;;;786004;177;1040607;-59
2023/06/24 08:16:22;;;;;;;4.30;1.80;;;;;;;;;;791738;177;917581;-60
2023/06/24 08:18:48;;;;;;;3.90;1.67;;;;;;;;;;783468;177;919497;-67
2023/06/24 08:21:14;;;;;;;3.67;1.70;;;;;;;;;;785699;176;894925;-58
2023/06/24 08:23:40;;;;;;;2.63;1.63;;;;;;;;;;785211;177;919372;-60
2023/06/24 08:26:07;;;;;;;3.23;1.87;;;;;;;;;;780693;178;918540;-70
2023/06/24 08:28:32;;;;;;;4.77;2.57;;;;;;;;;;781752;178;922337;-68
2023/06/24 08:30:58;;;;;;;4.90;2.10;;;;;;;;;;785266;177;921893;-68
2023/06/24 08:33:23;;;;;;;3.80;2.80;;;;;;;;;;788146;177;920010;-60
2023/06/24 08:35:50;;;;;;;4.53;2.80;;;;;;;;;;722146;177;10012123;-78
2023/06/24 08:38:16;;;;;;;3.87;2.63;;;;;;;;;;749532;182;2253506;-79
2023/06/24 08:40:43;;;;;;;5.20;3.10;;;;;;;;;;760726;183;843547;-81
2023/06/24 08:43:08;;;;;;;3.83;2.33;;;;;;;;;;758398;181;634783;-80
2023/06/24 08:45:34;;;;;;;6.40;3.80;;;;;;;;;;758597;181;616021;-79
2023/06/24 08:48:01;;;;;;;9.03;3.23;;;;;;;;;;757821;184;641701;-79
2023/06/24 08:50:26;;;;;;;6.33;3.70;;;;;;;;;;761915;182;623035;-78
2023/06/24 08:52:52;;;;;;;10.43;4.50;;;;;;;;;;756557;182;642055;-78
2023/06/24 08:55:18;;;;;;;7.13;3.87;;;;;;;;;;756484;183;683280;-78
2023/06/24 08:57:43;;;;;;;5.10;3.20;;;;;;;;;;763585;180;616067;-77
2023/06/24 09:00:10;;;;;;;5.47;3.47;;;;;;;;;;761275;182;616376;-79
2023/06/24 09:02:37;;;;;;;5.77;3.53;;;;;;;;;;760424;182;623445;-81
2023/06/24 09:05:01;;;;;;;5.80;3.13;;;;;;;;;;762174;184;642865;-80
2023/06/24 09:07:28;;;;;;;5.37;3.97;;;;;;;;;;760439;182;629384;-77
2023/06/24 09:09:53;;;;;;;4.87;3.40;;;;;;;;;;759977;183;630366;-80
2023/06/24 09:12:19;;;;;;;5.30;3.33;;;;;;;;;;761267;183;655684;-78
2023/06/24 09:14:49;;;;;;;5.23;3.90;;;;;;;;;;760204;182;630696;-78
2023/06/24 09:17:15;;;;;;;5.87;3.53;;;;;;;;;;759862;183;613346;-77
2023/06/24 09:19:41;;;;;;;5.50;3.10;;;;;;;;;;758713;183;626937;-78
2023/06/24 09:22:07;;;;;;;6.13;3.93;;;;;;;;;;761415;184;626551;-78
2023/06/24 09:24:33;;;;;;;8.00;3.87;;;;;;;;;;757704;182;643472;-77
2023/06/24 09:26:59;;;;;;;6.90;4.43;;;;;;;;;;759108;183;633695;-77
2023/06/24 09:29:25;;;;;;;5.13;4.07;;;;;;;;;;761200;182;649196;-78
2023/06/24 09:31:52;;;;;;;4.70;3.23;;;;;;;;;;759406;183;646766;-79
2023/06/24 09:34:18;;;;;;;5.67;3.30;;;;;;;;;;760287;181;655093;-76
2023/06/24 09:36:44;;;;;;;5.77;3.40;;;;;;;;;;758315;184;1010283;-78
2023/06/24 09:39:11;;;;;;;6.03;3.93;;;;;;;;;;762680;183;701414;-78
2023/06/24 09:41:37;;;;;;;6.93;4.33;;;;;;;;;;765644;181;624036;-75
2023/06/24 09:44:03;;;;;;;7.33;4.30;;;;;;;;;;754991;181;628153;-78
2023/06/24 09:46:30;;;;;;;5.90;3.90;;;;;;;;;;764389;183;746582;-79
2023/06/24 09:48:54;;;;;;;8.47;3.83;;;;;;;;;;764397;183;629170;-79
2023/06/24 09:51:22;;;;;;;5.95;3.70;;;;;;;;;;754078;184;691163;-79
2023/06/24 09:53:46;;;;;;;10.50;4.47;;;;;;;;;;761943;183;636601;-79
2023/06/24 09:56:12;;;;;;;6.43;4.57;;;;;;;;;;758732;181;666220;-79
2023/06/24 09:58:38;;;;;;;5.37;3.80;;;;;;;;;;759922;183;638030;-79
2023/06/24 10:01:04;;;;;;;6.70;4.47;;;;;;;;;;756556;183;636856;-78
2023/06/24 10:03:29;;;;;;;5.50;4.20;;;;;;;;;;764187;181;639404;-78
2023/06/24 10:05:55;;;;;;;6.07;3.63;;;;;;;;;;759082;183;657626;-79
2023/06/24 10:08:21;;;;;;;6.03;3.27;;;;;;;;;;753463;182;1273016;-79
2023/06/24 10:10:47;;;;;;;6.30;3.50;;;;;;;;;;759925;184;645337;-81
2023/06/24 10:13:13;;;;;;;5.80;4.27;;;;;;;;;;761300;182;647354;-80
2023/06/24 10:15:39;;;;;;;6.37;3.90;;;;;;;;;;758720;183;627945;-78
2023/06/24 10:18:04;;;;;;;5.27;4.23;;;;;;;;;;762263;182;645960;-81
2023/06/24 10:20:30;;;;;;;6.77;3.63;;;;;;;;;;758601;183;640449;-81
2023/06/24 10:22:58;;;;;;;5.87;3.90;;;;;;;;;;757478;183;796240;-81
2023/06/24 10:25:22;;;;;;;6.33;3.97;;;;;;;;;;761503;183;644557;-81
2023/06/24 10:27:48;;;;;;;6.77;4.30;;;;;;;;;;753558;185;630453;-78
2023/06/24 10:30:17;;;;;;;6.57;4.00;;;;;;;;;;754071;183;818731;-80
2023/06/24 10:32:43;;;;;;;6.17;3.63;;;;;;;;;;760363;184;637093;-81
2023/06/24 10:35:08;;;;;;;4.03;3.30;;;;;;;;;;762671;183;654605;-81
2023/06/24 10:37:34;;;;;;;9.90;3.47;;;;;;;;;;758578;184;631916;-80
2023/06/24 10:40:00;;;;;;;4.00;3.17;;;;;;;;;;758914;184;660246;-78
2023/06/24 10:42:27;;;;;;;4.60;3.23;;;;;;;;;;760199;181;626242;-81
2023/06/24 10:44:53;;;;;;;4.33;3.33;;;;;;;;;;760024;181;625657;-78
2023/06/24 10:47:19;;;;;;;3.90;2.70;;;;;;;;;;763764;181;632898;-79
2023/06/24 10:49:45;;;;;;;4.90;3.37;;;;;;;;;;755805;183;688385;-80
2023/06/24 10:52:11;;;;;;;4.70;2.70;;;;;;;;;;760874;185;696447;-80
2023/06/24 10:54:37;;;;;;;4.93;2.63;;;;;;;;;;756433;184;689498;-80
2023/06/24 10:57:04;;;;;;;4.13;3.27;;;;;;;;;;756336;184;627541;-80
2023/06/24 10:59:34;;;;;;;4.47;2.77;;;;;;;;;;761110;183;627981;-79
2023/06/24 11:02:00;;;;;;;4.67;2.57;;;;;;;;;;759193;183;633255;-81
2023/06/24 11:04:26;;;;;;;4.70;2.70;;;;;;;;;;758153;182;635017;-80
2023/06/24 11:06:57;;;;;;;7.10;2.53;;;;;;;;;;758618;181;630424;-81
2023/06/24 11:09:23;;;;;;;4.50;2.37;;;;;;;;;;762867;181;642545;-82
2023/06/24 11:11:49;;;;;;;7.30;2.90;;;;;;;;;;756429;181;784952;-81
2023/06/24 11:14:15;;;;;;;4.40;3.07;;;;;;;;;;756944;184;635742;-82
2023/06/24 11:16:41;;;;;;;3.30;2.40;;;;;;;;;;759962;184;956825;-80
2023/06/24 11:19:07;;;;;;;3.57;2.57;;;;;;;;;;759187;181;627476;-81
2023/06/24 11:21:33;;;;;;;4.60;2.63;;;;;;;;;;761135;183;645466;-81
2023/06/24 11:24:01;;;;;;;3.93;2.57;;;;;;;;;;758712;183;656875;-81
2023/06/24 11:26:27;;;;;;;5.20;2.77;;;;;;;;;;765680;180;624675;-79
2023/06/24 11:28:53;;;;;;;3.70;2.50;;;;;;;;;;760632;181;818996;-82
2023/06/24 11:31:19;;;;;;;3.73;2.80;;;;;;;;;;759432;183;659234;-81
2023/06/24 11:33:49;;;;;;;4.23;3.00;;;;;;;;;;762680;183;633188;-81
2023/06/24 11:36:15;;;;;;;7.20;5.60;;;;;;;;;;759794;183;628783;-80
2023/06/24 11:38:41;;;;;;;13.47;10.70;;;;;;;;;;758526;184;623909;-81
2023/06/24 11:41:07;;;;;;;8.67;7.30;;;;;;;;;;760117;184;640334;-81
2023/06/24 11:43:33;;;;;;;5.23;3.97;;;;;;;;;;762231;182;624513;-79
2023/06/24 11:45:58;;;;;;;5.50;2.60;;;;;;;;;;761119;183;624007;-81
2023/06/24 11:48:34;;;;;;;6.30;5.47;;;;;;;;;;757610;183;642776;-81
2023/06/24 11:51:00;;;;;;;4.53;3.97;;;;;;;;;;755431;181;621600;-82
2023/06/24 11:53:30;;;;;;;4.17;2.93;;;;;;;;;;749203;187;625125;-80
2023/06/24 11:55:55;;;;;;;4.40;3.20;;;;;;;;;;760324;180;638332;-79
2023/06/24 11:58:21;;;;;;;4.30;3.07;;;;;;;;;;757032;183;676119;-80
2023/06/24 12:00:48;;;;;;;4.40;3.33;;;;;;;;;;764424;183;640721;-79
2023/06/24 12:03:13;;;;;;;5.10;3.30;;;;;;;;;;758526;183;644998;-81
2023/06/24 12:05:44;;;;;;;5.70;3.30;;;;;;;;;;756015;183;658356;-78
2023/06/24 12:08:06;;;;;;;5.40;4.37;;;;;;;;;;762959;183;631835;-77
2023/06/24 12:10:33;;;;;;;5.60;4.40;;;;;;;;;;750649;184;994987;-78
2023/06/24 12:12:58;;;;;;;11.90;10.20;;;;;;;;;;756910;183;916531;-79
2023/06/24 12:15:24;;;;;;;6.80;4.30;;;;;;;;;;755858;181;925350;-77
2023/06/24 12:17:50;;;;;;;10.30;5.93;;;;;;;;;;762369;182;627149;-77
2023/06/24 12:20:17;;;;;;;4.50;3.70;;;;;;;;;;755032;183;1006262;-77
2023/06/24 12:22:41;;;;;;;5.37;4.57;;;;;;;;;;756013;183;729296;-78
2023/06/24 12:25:08;;;;;;;6.90;4.37;;;;;;;;;;760030;183;647596;-78
2023/06/24 12:27:34;;;;;;;4.57;3.20;;;;;;;;;;753411;182;1019378;-78
2023/06/24 12:29:59;;;;;;;7.47;3.90;;;;;;;;;;756986;184;619940;-78
2023/06/24 12:32:25;;;;;;;5.00;4.23;;;;;;;;;;761260;184;619318;-78
2023/06/24 12:34:51;;;;;;;4.30;3.30;;;;;;;;;;759520;181;683799;-78
2023/06/24 12:37:17;;;;;;;5.00;3.30;;;;;;;;;;754866;180;2134722;-77
2023/06/24 12:39:43;;;;;;;5.20;3.90;;;;;;;;;;760915;182;634093;-80
2023/06/24 12:42:09;;;;;;;5.43;3.77;;;;;;;;;;762932;182;643284;-81
2023/06/24 12:44:35;;;;;;;5.73;4.73;;;;;;;;;;760143;182;635819;-79
2023/06/24 12:47:00;;;;;;;7.40;5.43;;;;;;;;;;758143;183;628126;-79
2023/06/24 12:49:26;;;;;;;7.30;5.13;;;;;;;;;;761234;183;625067;-78
2023/06/24 12:51:52;;;;;;;5.10;3.80;;;;;;;;;;758053;183;622857;-78
2023/06/24 12:54:18;;;;;;;8.30;3.87;;;;;;;;;;757378;184;633228;-77
2023/06/24 12:56:44;;;;;;;6.77;4.73;;;;;;;;;;761011;181;623580;-78
2023/06/24 12:59:10;;;;;;;6.47;5.10;;;;;;;;;;757117;182;634989;-79
2023/06/24 13:01:35;;;;;;;7.10;4.90;;;;;;;;;;758903;183;627324;-78
2023/06/24 13:04:01;;;;;;;7.70;5.60;;;;;;;;;;757290;183;816582;-77
2023/06/24 13:06:28;;;;;;;5.37;3.37;;;;;;;;;;758196;181;799868;-78
2023/06/24 13:08:54;;;;;;;4.72;3.83;;;;;;;;;;758686;183;1242491;-76
2023/06/24 13:11:20;;;;;;;8.83;6.50;;;;;;;;;;758942;183;639557;-78
2023/06/24 13:13:46;;;;;;;6.30;4.37;;;;;;;;;;759863;184;631782;-79
2023/06/24 13:16:11;;;;;;;8.30;4.47;;;;;;;;;;757889;184;640338;-78
2023/06/24 13:18:37;;;;;;;6.90;4.03;;;;;;;;;;756012;185;643497;-81
2023/06/24 13:21:03;;;;;;;4.67;3.70;;;;;;;;;;762571;183;616400;-77
2023/06/24 13:23:29;;;;;;;5.27;3.37;;;;;;;;;;758972;183;648419;-77
2023/06/24 13:25:55;;;;;;;4.83;3.40;;;;;;;;;;757717;183;628535;-77
2023/06/24 13:28:21;;;;;;;5.10;3.53;;;;;;;;;;757075;183;660528;-80
2023/06/24 13:30:47;;;;;;;7.50;3.70;;;;;;;;;;757375;179;808243;-76
2023/06/24 13:33:13;;;;;;;6.10;3.47;;;;;;;;;;759091;183;713746;-66
2023/06/24 13:35:40;;;;;;;4.60;3.50;;;;;;;;;;754332;182;917506;-65
2023/06/24 13:38:07;;;;;;;6.33;3.80;;;;;;;;;;762909;181;818953;-79
2023/06/24 13:40:31;;;;;;;5.63;4.40;;;;;;;;;;756926;183;643353;-77
2023/06/24 13:42:57;;;;;;;10.90;4.57;;;;;;;;;;758380;183;640492;-77
2023/06/24 13:45:22;;;;;;;5.97;4.47;;;;;;;;;;761464;183;658326;-77
2023/06/24 13:47:49;;;;;;;6.47;4.10;;;;;;;;;;760403;183;620507;-76
2023/06/24 13:50:14;;;;;;;7.03;4.90;;;;;;;;;;757852;183;1324023;-76
2023/06/24 13:52:40;;;;;;;7.10;4.37;;;;;;;;;;762785;183;642574;-78
2023/06/24 13:55:06;;;;;;;8.33;4.80;;;;;;;;;;757045;181;1316075;-76
2023/06/24 13:57:32;;;;;;;6.90;4.73;;;;;;;;;;762945;181;620454;-76
2023/06/24 13:59:58;;;;;;;6.63;4.47;;;;;;;;;;758387;182;614110;-77
2023/06/24 14:02:24;;;;;;;5.50;3.97;;;;;;;;;;763553;181;634274;-78
2023/06/24 14:04:49;;;;;;;8.33;4.80;;;;;;;;;;755250;183;624927;-78
2023/06/24 14:07:15;;;;;;;9.00;3.85;;;;;;;;;;757613;181;666905;-77
2023/06/24 14:09:41;;;;;;;6.00;4.50;;;;;;;;;;764729;180;633960;-77
2023/06/24 14:12:08;;;;;;;13.43;4.87;;;;;;;;;;759035;183;631599;-77
2023/06/24 14:14:33;;;;;;;7.23;4.80;;;;;;;;;;759301;183;633995;-79
2023/06/24 14:16:59;;;;;;;12.50;5.87;;;;;;;;;;761405;183;628683;-79
2023/06/24 14:19:25;;;;;;;7.27;4.90;;;;;;;;;;757692;183;644655;-77
2023/06/24 14:21:51;;;;;;;7.43;5.20;;;;;;;;;;755194;181;1009189;-78